Time;durP1;ratioP1;P1;durP2;ratioP2;P2;SDS_P1;SDS_P2;PMS_P1;PMS_P2;Temp;Humidity;BMP_temperature;BMP_pressure;BME280_temperature;BME280_humidity;BME280_pressure;Samples;Min_cycle;Max_cycle;Signal;HPM_P1;HPM_P2
2023/09/19 00:00:27;;;;;;;0.20;0.20;;;;;;;17.27;100.00;98775.56;5085717;28;20472;-64
2023/09/19 00:02:57;;;;;;;0.20;0.20;;;;;;;17.26;100.00;98756.34;5085837;28;20031;-65
2023/09/19 00:05:24;;;;;;;0.20;0.20;;;;;;;17.26;100.00;98753.72;5085636;28;20020;-65
2023/09/19 00:07:51;;;;;;;0.40;0.40;;;;;;;17.26;100.00;98751.09;5085775;28;20020;-65
2023/09/19 00:10:17;;;;;;;0.20;0.20;;;;;;;17.24;100.00;98746.91;5085849;28;20032;-64
2023/09/19 00:12:45;;;;;;;0.20;0.20;;;;;;;17.23;100.00;98732.94;5084533;28;20029;-65
2023/09/19 00:15:11;;;;;;;0.20;0.20;;;;;;;17.24;100.00;98729.38;5085410;28;20025;-64
2023/09/19 00:17:37;;;;;;;0.20;0.20;;;;;;;17.21;100.00;98722.56;5085667;28;20028;-65
2023/09/19 00:20:07;;;;;;;1.48;1.30;;;;;;;17.20;100.00;98722.66;5085544;28;20059;-64
2023/09/19 00:22:32;;;;;;;1.58;1.48;;;;;;;17.18;100.00;98730.63;5085042;28;20476;-68
2023/09/19 00:24:57;;;;;;;0.90;0.57;;;;;;;17.13;100.00;98739.69;5085082;28;20059;-69
2023/09/19 00:27:22;;;;;;;0.20;0.20;;;;;;;17.08;100.00;98742.59;5085332;28;20116;-68
2023/09/19 00:29:48;;;;;;;0.30;0.30;;;;;;;16.99;100.00;98728.28;5085585;28;20054;-67
2023/09/19 00:32:13;;;;;;;0.20;0.20;;;;;;;16.97;100.00;98728.38;5085334;28;20048;-68
2023/09/19 00:34:38;;;;;;;36.15;3.63;;;;;;;17.17;100.00;98723.66;5085209;28;20033;-69
2023/09/19 00:37:04;;;;;;;0.30;0.30;;;;;;;17.26;100.00;98724.03;5085377;28;20023;-68
2023/09/19 00:39:31;;;;;;;0.30;0.30;;;;;;;17.27;100.00;98717.88;5085414;28;20016;-68
2023/09/19 00:41:57;;;;;;;0.73;0.73;;;;;;;17.16;100.00;98714.13;5084995;28;20096;-68
2023/09/19 00:44:23;;;;;;;0.22;0.22;;;;;;;17.20;100.00;98714.78;5084990;28;20051;-68
2023/09/19 00:46:50;;;;;;;2.33;2.15;;;;;;;17.22;100.00;98711.13;5085279;28;20036;-67
2023/09/19 00:49:15;;;;;;;1.95;1.85;;;;;;;17.14;100.00;98704.69;5085146;28;20020;-66
2023/09/19 00:51:41;;;;;;;1.10;1.08;;;;;;;17.11;100.00;98691.78;5085247;28;20448;-68
2023/09/19 00:54:07;;;;;;;1.85;1.75;;;;;;;17.09;100.00;98697.94;5084949;28;20048;-68
2023/09/19 00:56:33;;;;;;;0.20;0.20;;;;;;;17.18;100.00;98693.91;5085109;28;20021;-68
2023/09/19 00:58:59;;;;;;;0.40;0.40;;;;;;;17.21;100.00;98687.59;5084960;28;20128;-68
2023/09/19 01:01:25;;;;;;;1.17;1.13;;;;;;;17.23;100.00;98685.75;5085272;28;20036;-66
2023/09/19 01:03:50;;;;;;;0.35;0.35;;;;;;;17.06;100.00;98679.75;5083705;28;20025;-66
2023/09/19 01:06:17;;;;;;;1.40;1.10;;;;;;;17.06;100.00;98663.19;5084937;28;20426;-67
2023/09/19 01:08:42;;;;;;;0.50;0.50;;;;;;;16.97;100.00;98657.59;5085195;28;20055;-67
2023/09/19 01:11:34;;;;;;;2.55;0.85;;;;;;;16.97;100.00;98660.22;5084741;28;20032;-66
2023/09/19 01:14:07;;;;;;;0.98;0.88;;;;;;;16.92;100.00;98650.94;5084862;28;20032;-68
2023/09/19 01:16:34;;;;;;;1.05;1.05;;;;;;;17.02;100.00;98662.53;5066917;28;20025;-67
2023/09/19 01:19:09;;;;;;;1.75;1.65;;;;;;;17.02;100.00;98648.59;5085026;28;20025;-68
2023/09/19 01:21:51;;;;;;;1.33;1.23;;;;;;;17.13;100.00;98647.91;5084992;28;20197;-67
2023/09/19 01:24:36;;;;;;;2.78;2.58;;;;;;;17.21;100.00;98640.41;5069205;28;20048;-67
2023/09/19 01:27:19;;;;;;;0.45;0.45;;;;;;;17.06;100.00;98627.31;5088721;28;20032;-68
2023/09/19 01:29:49;;;;;;;1.05;1.05;;;;;;;17.07;100.00;98629.03;5088975;28;20024;-67
2023/09/19 01:32:21;;;;;;;1.23;1.02;;;;;;;17.01;100.00;98629.41;5088695;28;20035;-68
2023/09/19 01:35:05;;;;;;;0.35;0.35;;;;;;;17.10;100.00;98625.38;5088743;28;20481;-68
2023/09/19 01:37:31;;;;;;;0.30;0.30;;;;;;;17.16;100.00;98624.13;5088653;28;20048;-67
2023/09/19 01:40:10;;;;;;;0.30;0.30;;;;;;;17.08;100.00;98625.47;5088560;28;20029;-68
2023/09/19 01:42:48;;;;;;;2.97;1.48;;;;;;;17.09;100.00;98621.91;5088247;28;20020;-67
2023/09/19 01:45:52;;;;;;;0.68;0.68;;;;;;;17.13;100.00;98626.94;5088468;28;20046;-68
2023/09/19 01:48:40;;;;;;;0.95;0.95;;;;;;;17.02;100.00;98620.59;5088445;28;20032;-68
2023/09/19 01:51:06;;;;;;;0.45;0.45;;;;;;;17.09;100.00;98606.19;5088673;28;20063;-68
2023/09/19 01:53:53;;;;;;;0.20;0.20;;;;;;;17.12;100.00;98609.53;5088179;28;20032;-68
2023/09/19 01:56:32;;;;;;;0.82;0.82;;;;;;;17.17;100.00;98608.28;5088026;28;20095;-67
2023/09/19 01:59:03;;;;;;;0.43;0.43;;;;;;;17.11;100.00;98603.44;5088275;28;20043;-68
2023/09/19 02:01:29;;;;;;;;;;;;;;;17.23;100.00;98599.22;5088646;28;20020;-68
2023/09/19 02:03:56;;;;;;;1.13;1.13;;;;;;;17.22;100.00;98605.41;5087912;28;20006;-66
2023/09/19 02:06:21;;;;;;;0.57;0.57;;;;;;;17.21;100.00;98603.69;5088221;28;20029;-67
2023/09/19 02:08:47;;;;;;;0.20;0.20;;;;;;;17.12;100.00;98591.19;5088189;28;20021;-68
2023/09/19 02:11:13;;;;;;;2.28;1.25;;;;;;;17.21;100.00;98583.56;5087976;28;20029;-67
2023/09/19 02:13:39;;;;;;;3.03;1.40;;;;;;;17.13;100.00;98570.13;5088087;28;20021;-68
2023/09/19 02:16:05;;;;;;;0.40;0.40;;;;;;;17.27;100.00;98569.22;5088118;28;20048;-66
2023/09/19 02:18:30;;;;;;;0.32;0.32;;;;;;;17.25;100.00;98555.38;5087933;28;20020;-69
2023/09/19 02:20:58;;;;;;;0.50;0.50;;;;;;;17.29;100.00;98548.97;5087844;28;20028;-68
2023/09/19 02:23:24;;;;;;;2.22;1.52;;;;;;;17.28;100.00;98554.31;5069864;28;20047;-70
2023/09/19 02:26:05;;;;;;;0.50;0.50;;;;;;;17.19;100.00;98545.25;5087561;28;20024;-70
2023/09/19 02:28:31;;;;;;;0.40;0.40;;;;;;;17.26;100.00;98543.94;5087767;28;20352;-72
2023/09/19 02:30:57;;;;;;;0.50;0.50;;;;;;;17.17;100.00;98539.31;5087793;28;20039;-70
2023/09/19 02:33:23;;;;;;;0.38;0.38;;;;;;;17.17;100.00;98548.00;5087864;28;20029;-69
2023/09/19 02:35:48;;;;;;;0.40;0.40;;;;;;;17.21;100.00;98539.00;5086222;28;20032;-70
2023/09/19 02:38:18;;;;;;;1.38;1.38;;;;;;;17.20;100.00;98536.47;5069434;28;20084;-70
2023/09/19 02:40:43;;;;;;;1.08;1.08;;;;;;;17.21;100.00;98531.13;5087641;28;20024;-69
2023/09/19 02:43:09;;;;;;;0.20;0.20;;;;;;;17.21;100.00;98536.38;5085889;28;20058;-70
2023/09/19 02:45:35;;;;;;;0.75;0.75;;;;;;;17.22;100.00;98524.13;5087332;28;20042;-69
2023/09/19 02:48:02;;;;;;;0.20;0.20;;;;;;;17.27;100.00;98523.81;5087362;28;20055;-69
2023/09/19 02:50:27;;;;;;;2.15;1.40;;;;;;;17.29;100.00;98514.88;5087299;28;20047;-68
2023/09/19 02:52:53;;;;;;;0.75;0.75;;;;;;;17.27;100.00;98519.38;5087242;28;20025;-69
2023/09/19 02:55:19;;;;;;;0.20;0.20;;;;;;;17.25;100.00;98518.66;5069001;28;20028;-69
2023/09/19 02:57:52;;;;;;;0.20;0.20;;;;;;;17.24;100.00;98511.72;5087117;28;20024;-70
2023/09/19 03:00:21;;;;;;;0.20;0.20;;;;;;;17.23;100.00;98504.81;5087112;28;20074;-68
2023/09/19 03:02:52;;;;;;;0.30;0.30;;;;;;;17.21;100.00;98515.41;5087243;28;20074;-67
2023/09/19 03:05:19;;;;;;;1.27;1.17;;;;;;;17.26;100.00;98507.22;5086921;28;20017;-66
2023/09/19 03:07:46;;;;;;;0.30;0.30;;;;;;;17.21;100.00;98499.66;5086789;28;20032;-66
2023/09/19 03:10:12;;;;;;;0.20;0.20;;;;;;;17.22;100.00;98496.09;5086775;28;20024;-67
2023/09/19 03:12:39;;;;;;;0.20;0.20;;;;;;;17.22;100.00;98482.97;5086565;28;20056;-65
2023/09/19 03:15:06;;;;;;;2.67;1.00;;;;;;;17.20;100.00;98476.16;5086802;28;20031;-66
2023/09/19 03:17:32;;;;;;;0.30;0.30;;;;;;;17.16;100.00;98472.91;5086761;28;20016;-66
2023/09/19 03:19:57;;;;;;;0.20;0.20;;;;;;;17.15;100.00;98470.38;5086729;28;20020;-66
2023/09/19 03:22:24;;;;;;;0.30;0.30;;;;;;;17.13;100.00;98464.41;5086502;28;20031;-66
2023/09/19 03:24:50;;;;;;;0.20;0.20;;;;;;;17.12;100.00;98465.34;5086439;28;20100;-66
2023/09/19 03:27:16;;;;;;;0.40;0.40;;;;;;;17.05;100.00;98464.88;5086269;28;20050;-66
2023/09/19 03:29:42;;;;;;;0.40;0.40;;;;;;;17.09;100.00;98458.53;5086624;28;20511;-65
2023/09/19 03:32:10;;;;;;;0.28;0.28;;;;;;;17.12;100.00;98457.50;5086339;28;20017;-65
2023/09/19 03:34:38;;;;;;;0.85;0.85;;;;;;;17.14;100.00;98445.13;5086281;28;20024;-65
2023/09/19 03:37:03;;;;;;;0.20;0.20;;;;;;;17.08;100.00;98452.44;5086250;28;20028;-65
2023/09/19 03:39:29;;;;;;;0.30;0.30;;;;;;;17.07;100.00;98450.75;5086360;28;20028;-66
2023/09/19 03:41:54;;;;;;;0.85;0.85;;;;;;;17.07;100.00;98450.75;5086103;28;20024;-64
2023/09/19 03:44:19;;;;;;;2.05;1.40;;;;;;;17.01;100.00;98447.69;5086215;28;20024;-65
2023/09/19 03:46:45;;;;;;;0.55;0.55;;;;;;;16.96;100.00;98450.63;5085777;28;20111;-65
2023/09/19 03:49:10;;;;;;;0.20;0.20;;;;;;;16.92;100.00;98457.00;5086296;28;20040;-65
2023/09/19 03:51:37;;;;;;;0.20;0.20;;;;;;;16.87;100.00;98449.44;5086186;28;20021;-65
2023/09/19 03:54:04;;;;;;;0.20;0.20;;;;;;;16.69;100.00;98446.25;5086221;28;20028;-66
2023/09/19 03:56:29;;;;;;;0.40;0.40;;;;;;;16.75;100.00;98443.25;5085739;28;20450;-64
2023/09/19 03:58:55;;;;;;;0.20;0.20;;;;;;;16.75;100.00;98445.88;5085917;28;20017;-64
2023/09/19 04:01:20;;;;;;;0.20;0.20;;;;;;;16.68;100.00;98429.69;5085851;28;20472;-64
2023/09/19 04:03:47;;;;;;;0.20;0.20;;;;;;;16.74;100.00;98433.72;5084442;28;20122;-64
2023/09/19 04:06:13;;;;;;;0.30;0.30;;;;;;;16.79;100.00;98436.03;5085742;28;20027;-64
2023/09/19 04:08:38;;;;;;;0.82;0.82;;;;;;;16.80;100.00;98433.31;5085715;28;20081;-68
2023/09/19 04:11:04;;;;;;;0.20;0.20;;;;;;;16.77;100.00;98432.66;5085438;28;20024;-66
2023/09/19 04:13:29;;;;;;;0.20;0.20;;;;;;;16.82;100.00;98428.78;5085066;28;20480;-66
2023/09/19 04:15:55;;;;;;;0.20;0.20;;;;;;;16.82;100.00;98433.19;5085494;28;20017;-65
2023/09/19 04:18:21;;;;;;;0.20;0.20;;;;;;;16.77;100.00;98438.75;5085478;28;20024;-65
2023/09/19 04:20:50;;;;;;;0.20;0.20;;;;;;;16.79;100.00;98430.78;5085430;28;20024;-66
2023/09/19 04:23:16;;;;;;;0.20;0.20;;;;;;;16.76;100.00;98436.22;5085256;28;20017;-65
2023/09/19 04:25:42;;;;;;;0.20;0.20;;;;;;;16.73;100.00;98430.25;5085387;28;20023;-66
2023/09/19 04:28:07;;;;;;;0.20;0.20;;;;;;;16.75;100.00;98434.53;5085198;28;20025;-65
2023/09/19 04:30:33;;;;;;;0.25;0.25;;;;;;;16.73;100.00;98434.63;5085406;28;20425;-64
2023/09/19 04:32:59;;;;;;;0.20;0.20;;;;;;;16.71;100.00;98418.16;5085468;28;20028;-65
2023/09/19 04:35:25;;;;;;;0.30;0.30;;;;;;;16.69;100.00;98413.03;5084226;28;20464;-65
2023/09/19 04:37:50;;;;;;;0.20;0.20;;;;;;;16.55;100.00;98406.09;5084542;28;20040;-64
2023/09/19 04:40:17;;;;;;;0.20;0.20;;;;;;;16.57;100.00;98432.19;5084625;28;20024;-65
2023/09/19 04:42:43;;;;;;;1.45;0.65;;;;;;;16.53;100.00;98425.47;5084332;28;20032;-65
2023/09/19 04:45:10;;;;;;;0.20;0.20;;;;;;;16.48;100.00;98436.25;5084792;28;20078;-64
2023/09/19 04:47:38;;;;;;;0.20;0.20;;;;;;;16.45;100.00;98423.34;5084464;28;20024;-65
2023/09/19 04:50:04;;;;;;;0.20;0.20;;;;;;;16.41;100.00;98442.81;5084584;28;20025;-65
2023/09/19 04:52:31;;;;;;;0.20;0.20;;;;;;;16.32;100.00;98439.00;5084797;28;20020;-66
2023/09/19 04:54:56;;;;;;;0.20;0.20;;;;;;;16.26;99.35;98444.63;5084389;28;20020;-67
2023/09/19 04:57:22;;;;;;;0.20;0.20;;;;;;;16.22;98.90;98449.22;5084348;28;20085;-65
2023/09/19 04:59:48;;;;;;;0.20;0.20;;;;;;;16.19;97.32;98457.28;5084836;28;20076;-65
2023/09/19 05:02:13;;;;;;;0.20;0.20;;;;;;;16.17;97.45;98460.00;5085118;28;20119;-66
2023/09/19 05:04:38;;;;;;;0.20;0.20;;;;;;;16.05;95.69;98468.63;5084904;28;20062;-67
2023/09/19 05:07:04;;;;;;;0.57;0.57;;;;;;;15.98;95.45;98470.78;5085190;28;20025;-65
2023/09/19 05:09:29;;;;;;;0.77;0.77;;;;;;;16.02;95.14;98472.28;5085193;28;20099;-66
2023/09/19 05:11:56;;;;;;;1.17;1.15;;;;;;;15.86;94.24;98478.41;5084828;28;20056;-65
2023/09/19 05:14:23;;;;;;;0.20;0.20;;;;;;;15.73;92.75;98464.41;5085092;28;20028;-65
2023/09/19 05:16:48;;;;;;;0.20;0.20;;;;;;;15.67;91.42;98496.19;5084809;28;20229;-65
2023/09/19 05:19:14;;;;;;;0.20;0.20;;;;;;;15.62;91.71;98480.75;5084813;28;20055;-64
2023/09/19 05:21:39;;;;;;;0.20;0.20;;;;;;;15.59;91.79;98473.94;5084611;28;20115;-64
2023/09/19 05:24:08;;;;;;;0.20;0.20;;;;;;;15.55;91.39;98488.13;5084410;28;20037;-66
2023/09/19 05:26:34;;;;;;;0.20;0.20;;;;;;;15.48;91.08;98471.97;5084635;28;20108;-66
2023/09/19 05:28:59;;;;;;;0.20;0.20;;;;;;;15.58;91.62;98482.72;5084607;28;20086;-66
2023/09/19 05:31:25;;;;;;;0.20;0.20;;;;;;;15.59;91.50;98483.56;5084711;28;20055;-65
2023/09/19 05:33:51;;;;;;;0.20;0.20;;;;;;;15.59;91.88;98491.41;5084589;28;20034;-66
2023/09/19 05:36:16;;;;;;;0.20;0.20;;;;;;;15.53;91.11;98484.75;5084649;28;20048;-65
2023/09/19 05:38:42;;;;;;;0.32;0.32;;;;;;;15.51;91.22;98484.00;5084591;28;20021;-66
2023/09/19 05:41:09;;;;;;;0.20;0.20;;;;;;;15.48;90.59;98497.25;5084155;28;20035;-65
2023/09/19 05:43:37;;;;;;;0.95;0.95;;;;;;;15.48;90.51;98494.66;5066896;28;20021;-66
2023/09/19 05:46:03;;;;;;;0.20;0.20;;;;;;;15.39;90.09;98495.19;5084502;28;20021;-65
2023/09/19 05:48:28;;;;;;;0.20;0.20;;;;;;;15.36;89.79;98481.41;5084499;28;20038;-65
2023/09/19 05:50:54;;;;;;;0.40;0.40;;;;;;;15.41;89.16;98509.88;5083307;28;20111;-66
2023/09/19 05:53:20;;;;;;;0.20;0.20;;;;;;;15.44;89.30;98501.84;5084872;28;20024;-65
2023/09/19 05:55:45;;;;;;;0.32;0.32;;;;;;;15.38;88.51;98519.66;5084284;28;20021;-65
2023/09/19 05:58:13;;;;;;;0.32;0.32;;;;;;;15.37;88.12;98516.22;5084378;28;20028;-65
2023/09/19 06:00:41;;;;;;;0.20;0.20;;;;;;;15.37;87.65;98531.91;5066589;28;20021;-65
2023/09/19 06:03:07;;;;;;;0.22;0.22;;;;;;;15.36;87.23;98536.31;5084493;28;20021;-66
2023/09/19 06:05:32;;;;;;;0.25;0.25;;;;;;;15.36;86.82;98546.75;5084541;28;20017;-67
2023/09/19 06:08:00;;;;;;;0.20;0.20;;;;;;;15.31;85.37;98540.09;5084650;28;20020;-65
2023/09/19 06:10:28;;;;;;;0.30;0.30;;;;;;;15.27;84.17;98544.66;5087392;28;20072;-66
2023/09/19 06:12:54;;;;;;;0.30;0.30;;;;;;;15.34;84.99;98548.63;5087841;28;20111;-66
2023/09/19 06:15:22;;;;;;;0.35;0.35;;;;;;;15.29;84.32;98549.81;5088091;28;20036;-65
2023/09/19 06:17:49;;;;;;;0.20;0.20;;;;;;;15.27;84.12;98556.91;5088165;28;20046;-65
2023/09/19 06:20:19;;;;;;;0.45;0.45;;;;;;;15.21;83.74;98552.84;5087998;28;20020;-65
2023/09/19 06:22:45;;;;;;;0.20;0.20;;;;;;;15.18;84.22;98560.88;5088300;28;20021;-65
2023/09/19 06:25:18;;;;;;;0.55;0.55;;;;;;;15.13;84.66;98570.78;5087733;28;20044;-65
2023/09/19 06:27:45;;;;;;;0.20;0.20;;;;;;;15.00;85.20;98560.97;5087827;28;20058;-65
2023/09/19 06:30:14;;;;;;;0.20;0.20;;;;;;;14.85;83.71;98573.16;5087840;28;20035;-66
2023/09/19 06:32:43;;;;;;;0.30;0.30;;;;;;;14.71;83.46;98566.06;5069650;28;20028;-66
2023/09/19 06:35:11;;;;;;;0.20;0.20;;;;;;;14.63;82.41;98577.75;5070241;28;20078;-65
2023/09/19 06:37:38;;;;;;;0.20;0.20;;;;;;;14.53;81.89;98578.34;5087691;28;20024;-65
2023/09/19 06:40:13;;;;;;;0.20;0.20;;;;;;;14.55;83.36;98593.03;5087724;28;20047;-65
2023/09/19 06:42:39;;;;;;;0.28;0.28;;;;;;;14.51;83.59;98575.81;5087345;28;20024;-65
2023/09/19 06:45:05;;;;;;;0.20;0.20;;;;;;;14.71;84.89;98594.78;5087738;28;20023;-65
2023/09/19 06:47:30;;;;;;;0.30;0.30;;;;;;;14.87;85.46;98590.41;5087529;28;20036;-65
2023/09/19 06:49:56;;;;;;;0.20;0.20;;;;;;;15.07;85.65;98588.47;5087517;28;20032;-65
2023/09/19 06:52:22;;;;;;;0.22;0.22;;;;;;;15.72;86.96;98593.50;5087404;28;20385;-65
2023/09/19 06:54:50;;;;;;;0.20;0.20;;;;;;;16.42;84.81;98581.50;5087292;28;20024;-64
2023/09/19 06:57:16;;;;;;;1.42;1.33;;;;;;;16.75;80.64;98571.63;5069406;28;20481;-66
2023/09/19 06:59:41;;;;;;;0.20;0.20;;;;;;;16.90;78.52;98593.38;5087429;28;20043;-65
2023/09/19 07:02:06;;;;;;;0.20;0.20;;;;;;;16.88;78.26;98582.19;5087307;28;20077;-65
2023/09/19 07:04:32;;;;;;;0.20;0.20;;;;;;;16.88;77.17;98586.56;5087266;28;20020;-64
2023/09/19 07:06:58;;;;;;;0.20;0.20;;;;;;;16.77;77.04;98598.59;5086770;28;20104;-65
2023/09/19 07:09:23;;;;;;;0.20;0.20;;;;;;;16.67;76.52;98592.22;5085865;28;20028;-66
2023/09/19 07:11:50;;;;;;;0.20;0.20;;;;;;;16.60;76.56;98600.47;5086833;28;20032;-64
2023/09/19 07:14:16;;;;;;;0.20;0.20;;;;;;;16.48;75.59;98606.50;5087234;28;20025;-65
2023/09/19 07:16:44;;;;;;;0.30;0.30;;;;;;;16.39;75.55;98597.41;5086796;28;20036;-65
2023/09/19 07:19:09;;;;;;;0.20;0.20;;;;;;;16.36;75.80;98597.59;5086987;28;20024;-65
2023/09/19 07:21:44;;;;;;;0.20;0.20;;;;;;;16.43;76.23;98593.69;5086293;28;20095;-64
2023/09/19 07:24:09;;;;;;;0.20;0.20;;;;;;;16.38;75.81;98602.75;5077049;28;20041;-65
2023/09/19 07:26:35;;;;;;;0.20;0.20;;;;;;;16.54;74.63;98607.88;5066248;28;20032;-63
2023/09/19 07:29:03;;;;;;;0.20;0.20;;;;;;;16.84;73.77;98612.97;5066589;28;20025;-65
2023/09/19 07:31:29;;;;;;;0.20;0.20;;;;;;;17.54;74.58;98620.78;5066759;28;20092;-65
2023/09/19 07:33:54;;;;;;;0.57;0.57;;;;;;;18.16;72.14;98615.00;5066754;28;20021;-65
2023/09/19 07:36:20;;;;;;;5.35;1.38;;;;;;;18.24;73.49;98599.56;5066491;28;20116;-64
2023/09/19 07:38:45;;;;;;;0.20;0.20;;;;;;;17.90;70.36;98615.81;5066506;28;20354;-64
2023/09/19 07:41:11;;;;;;;0.20;0.20;;;;;;;17.67;70.30;98609.47;5066279;28;20029;-65
2023/09/19 07:43:37;;;;;;;0.20;0.20;;;;;;;17.70;69.14;98625.00;5065894;28;20024;-66
2023/09/19 07:46:07;;;;;;;0.20;0.20;;;;;;;18.12;68.24;98622.22;5065752;28;20107;-64
2023/09/19 07:48:33;;;;;;;0.20;0.20;;;;;;;18.25;65.15;98624.84;5066296;28;20049;-64
2023/09/19 07:51:03;;;;;;;0.20;0.20;;;;;;;18.40;63.95;98617.69;5066207;28;20029;-65
2023/09/19 07:53:29;;;;;;;2.95;2.55;;;;;;;18.64;63.56;98621.34;5066071;28;20060;-65
2023/09/19 07:56:05;;;;;;;0.38;0.38;;;;;;;18.50;62.47;98619.69;5065695;28;20487;-65
2023/09/19 07:58:31;;;;;;;0.20;0.20;;;;;;;18.23;62.64;98636.44;5092781;22;20079;-63
2023/09/19 08:01:01;;;;;;;0.20;0.20;;;;;;;17.95;64.53;98628.63;5105191;22;20160;-63
2023/09/19 08:03:27;;;;;;;0.30;0.30;;;;;;;17.88;64.45;98643.09;5064666;28;20029;-63
2023/09/19 08:05:52;;;;;;;0.40;0.40;;;;;;;17.92;64.13;98642.78;5083681;28;20080;-62
2023/09/19 08:08:17;;;;;;;0.20;0.20;;;;;;;17.97;62.79;98626.72;5102391;23;20084;-62
2023/09/19 08:10:45;;;;;;;0.20;0.20;;;;;;;17.68;62.08;98635.59;5126339;28;20042;-62
2023/09/19 08:13:14;;;;;;;1.00;1.00;;;;;;;17.36;63.28;98628.09;5126080;28;20038;-62
2023/09/19 08:15:44;;;;;;;0.60;0.60;;;;;;;17.20;63.94;98638.75;5124615;28;20045;-62
2023/09/19 08:18:11;;;;;;;0.20;0.20;;;;;;;17.33;64.62;98617.81;5126321;28;20020;-62
2023/09/19 08:20:37;;;;;;;0.80;0.80;;;;;;;17.52;65.25;98627.94;5126076;28;20019;-62
2023/09/19 08:23:03;;;;;;;0.20;0.20;;;;;;;17.83;63.83;98618.00;5126217;28;20030;-62
2023/09/19 08:25:29;;;;;;;0.30;0.30;;;;;;;17.79;61.74;98629.66;5125801;28;20024;-62
2023/09/19 08:27:59;;;;;;;0.20;0.20;;;;;;;17.79;61.62;98641.94;5126171;28;20023;-62
2023/09/19 08:30:27;;;;;;;0.20;0.20;;;;;;;17.88;60.34;98637.84;5125634;28;20027;-62
2023/09/19 08:32:59;;;;;;;0.20;0.20;;;;;;;18.12;61.04;98642.38;5125226;28;20023;-61
2023/09/19 08:35:24;;;;;;;;;;;;;;;18.50;60.83;98664.34;5130234;22;20084;-63
2023/09/19 08:37:50;;;;;;;0.90;0.90;;;;;;;18.32;58.95;98646.28;5125990;28;19966;-63
2023/09/19 08:40:16;;;;;;;1.75;1.65;;;;;;;17.86;60.11;98666.00;5126023;28;20023;-62
2023/09/19 08:42:49;;;;;;;0.40;0.40;;;;;;;17.65;59.80;98655.97;5125737;28;20091;-63
2023/09/19 08:45:15;;;;;;;0.20;0.20;;;;;;;17.50;60.62;98666.53;5107482;28;20112;-62
2023/09/19 08:47:48;;;;;;;1.65;1.45;;;;;;;17.46;61.03;98671.13;5125751;28;20019;-62
2023/09/19 08:50:19;;;;;;;0.20;0.20;;;;;;;17.15;59.95;98667.88;5107474;28;20020;-62
2023/09/19 08:52:46;;;;;;;1.85;1.75;;;;;;;16.68;61.47;98672.50;5125898;28;20027;-63
2023/09/19 08:55:20;;;;;;;0.20;0.20;;;;;;;16.37;62.02;98663.91;5125573;28;20023;-63
2023/09/19 08:57:48;;;;;;;0.20;0.20;;;;;;;16.08;63.88;98673.44;5125417;28;20086;-63
2023/09/19 09:00:17;;;;;;;0.30;0.30;;;;;;;16.27;65.99;98681.94;5123671;22;20058;-64
2023/09/19 09:02:43;;;;;;;0.20;0.20;;;;;;;17.27;64.80;98681.16;5124293;28;20019;-64
2023/09/19 09:05:12;;;;;;;0.20;0.20;;;;;;;17.39;60.96;98664.63;5125439;28;20020;-64
2023/09/19 09:07:38;;;;;;;0.30;0.30;;;;;;;17.62;62.30;98675.38;5125496;28;20102;-64
2023/09/19 09:10:04;;;;;;;0.20;0.20;;;;;;;17.33;61.98;98672.88;5125533;28;20015;-64
2023/09/19 09:12:30;;;;;;;0.73;0.73;;;;;;;17.13;63.29;98685.47;5125281;28;20069;-64
2023/09/19 09:14:57;;;;;;;0.20;0.20;;;;;;;16.88;65.02;98683.53;5125547;28;20028;-65
2023/09/19 09:17:24;;;;;;;0.20;0.20;;;;;;;16.53;63.04;98672.53;5125486;28;20024;-63
2023/09/19 09:19:52;;;;;;;0.20;0.20;;;;;;;16.13;63.04;98683.63;5125517;28;20035;-64
2023/09/19 09:22:18;;;;;;;0.20;0.20;;;;;;;15.96;62.99;98681.97;5125410;28;20120;-64
2023/09/19 09:24:54;;;;;;;0.22;0.22;;;;;;;16.14;62.11;98692.31;5125416;28;20449;-64
2023/09/19 09:27:20;;;;;;;0.20;0.20;;;;;;;16.35;62.62;98688.44;5125083;28;20114;-64
2023/09/19 09:29:50;;;;;;;0.30;0.30;;;;;;;16.75;63.76;98686.94;5125147;28;20079;-65
2023/09/19 09:32:24;;;;;;;0.20;0.20;;;;;;;17.42;61.15;98695.03;5125310;28;20028;-64
2023/09/19 09:35:00;;;;;;;0.20;0.20;;;;;;;17.76;61.59;98698.09;5125306;28;20107;-65
2023/09/19 09:37:31;;;;;;;0.20;0.20;;;;;;;17.96;60.20;98690.66;5125326;28;20069;-64
2023/09/19 09:42:42;;;;;;;0.20;0.20;;;;;;;19.92;56.63;98699.81;5125080;28;20056;-64
2023/09/19 09:45:13;;;;;;;0.20;0.20;;;;;;;20.76;54.47;98690.00;5127520;28;20042;-64
2023/09/19 09:47:55;;;;;;;0.20;0.20;;;;;;;21.07;52.12;98689.38;5129244;28;20049;-64
2023/09/19 09:53:31;;;;;;;0.20;0.20;;;;;;;20.60;52.12;98681.63;5128968;28;20055;-65
2023/09/19 09:56:05;;;;;;;0.10;0.10;;;;;;;19.14;52.70;98689.66;5128542;28;20129;-66
2023/09/19 09:58:32;;;;;;;0.20;0.20;;;;;;;17.89;53.56;98702.53;5128527;28;20363;-64
2023/09/19 10:01:08;;;;;;;0.20;0.20;;;;;;;17.03;56.16;98705.34;5128839;28;20091;-63
2023/09/19 10:03:43;;;;;;;0.20;0.20;;;;;;;16.41;59.05;98721.25;5128828;28;20050;-63
2023/09/19 10:06:25;;;;;;;0.20;0.20;;;;;;;15.89;60.81;98725.13;5128298;28;20030;-63
2023/09/19 10:09:01;;;;;;;;;;;;;;;15.51;61.62;98729.81;5128950;28;20049;-63
2023/09/19 10:11:30;;;;;;;0.20;0.20;;;;;;;15.05;64.64;98728.00;5127291;28;20251;-64
2023/09/19 10:13:55;;;;;;;13.15;1.95;;;;;;;14.81;66.37;98734.44;5128584;28;20024;-64
2023/09/19 10:16:22;;;;;;;0.20;0.20;;;;;;;14.73;67.52;98737.44;5128556;28;20037;-64
2023/09/19 10:18:52;;;;;;;0.20;0.20;;;;;;;14.94;68.03;98721.56;5128512;28;20023;-65
2023/09/19 10:21:22;;;;;;;0.30;0.30;;;;;;;16.30;65.27;98739.38;5127334;28;20072;-64
2023/09/19 10:23:52;;;;;;;0.30;0.30;;;;;;;17.53;60.77;98723.19;5128846;28;20027;-64
2023/09/19 10:26:17;;;;;;;0.20;0.20;;;;;;;17.74;59.98;98739.34;5126935;28;20102;-64
2023/09/19 10:28:48;;;;;;;0.20;0.20;;;;;;;17.40;59.82;98738.88;5127658;28;20031;-65
2023/09/19 10:31:17;;;;;;;0.20;0.20;;;;;;;17.23;60.82;98730.31;5127053;28;20118;-63
2023/09/19 10:33:43;;;;;;;0.15;0.15;;;;;;;16.97;60.46;98745.88;5128347;28;20027;-64
2023/09/19 10:36:11;;;;;;;0.20;0.20;;;;;;;16.51;60.92;98742.50;5128283;28;20023;-64
2023/09/19 10:38:40;;;;;;;0.68;0.68;;;;;;;16.23;62.23;98744.13;5128152;28;20104;-64
2023/09/19 10:41:07;;;;;;;0.43;0.40;;;;;;;16.03;62.46;98753.16;5128230;27;20024;-64
2023/09/19 10:43:33;;;;;;;1.25;0.63;;;;;;;15.95;62.72;98740.47;5127877;28;20043;-64
2023/09/19 10:46:05;;;;;;;1.35;0.55;;;;;;;15.80;62.15;98750.88;5127866;28;20031;-64
2023/09/19 10:48:31;;;;;;;0.50;0.50;;;;;;;15.71;62.51;98749.66;5128150;28;20320;-65
2023/09/19 10:51:15;;;;;;;2.08;1.02;;;;;;;15.61;61.56;98751.09;5127984;28;20024;-65
2023/09/19 10:53:54;;;;;;;1.58;0.70;;;;;;;15.73;62.43;98747.78;5127945;28;20529;-64
2023/09/19 10:56:27;;;;;;;4.78;1.15;;;;;;;15.88;63.30;98742.59;5126798;28;20027;-65
2023/09/19 10:59:10;;;;;;;0.85;0.75;;;;;;;15.84;62.66;98755.03;5127475;28;20047;-63
2023/09/19 11:01:56;;;;;;;2.50;0.85;;;;;;;15.71;61.92;98754.88;5126424;28;20019;-64
2023/09/19 11:04:35;;;;;;;0.32;0.32;;;;;;;15.43;57.98;98758.19;5127664;28;20099;-64
2023/09/19 11:07:12;;;;;;;1.52;1.25;;;;;;;15.08;56.99;98772.25;5127586;28;20023;-65
2023/09/19 11:09:45;;;;;;;0.90;0.70;;;;;;;14.86;58.51;98784.69;5127610;28;20073;-64
2023/09/19 11:12:11;;;;;;;9.85;1.00;;;;;;;14.81;60.63;98784.06;5127324;28;20027;-63
2023/09/19 11:14:41;;;;;;;3.25;1.10;;;;;;;14.88;61.46;98784.59;5127569;28;20108;-65
2023/09/19 11:17:11;;;;;;;4.38;0.70;;;;;;;14.90;62.22;98793.22;5127315;28;20111;-64
2023/09/19 11:22:50;;;;;;;6.80;1.02;;;;;;;15.46;62.11;98784.19;5127522;28;20023;-65
2023/09/19 11:25:30;;;;;;;0.95;0.60;;;;;;;15.96;63.04;98784.88;5127587;28;20042;-65
2023/09/19 11:28:08;;;;;;;1.50;0.80;;;;;;;17.24;59.58;98784.44;5127159;28;20239;-65
2023/09/19 11:30:43;;;;;;;0.68;0.60;;;;;;;18.49;59.31;98783.53;5126949;28;20024;-64
2023/09/19 11:33:46;;;;;;;0.20;0.20;;;;;;;19.25;56.02;98774.88;5127129;28;20027;-65
2023/09/19 11:36:16;;;;;;;1.40;0.80;;;;;;;18.70;55.88;98792.59;5127102;28;20023;-65
2023/09/19 11:38:44;;;;;;;1.25;0.60;;;;;;;18.17;57.33;98792.63;5125776;28;20035;-65
2023/09/19 11:41:26;;;;;;;0.90;0.65;;;;;;;17.75;55.45;98795.31;5125894;28;20030;-65
2023/09/19 11:44:16;;;;;;;2.13;0.85;;;;;;;17.46;56.38;98793.56;5126750;28;20051;-64
2023/09/19 11:46:51;;;;;;;3.05;1.27;;;;;;;17.09;56.95;98801.97;5125490;28;20019;-65